Hauptseite
METAR-TAF:

METAR-TAF

Flughäfen :

Heeresflugplatz Niederstetten

Niederstetten, Deutschland

Breite: 49-24N, Länge: 009-58E, Höhe: 468 m

Beobachtung

Neuester Wetterbericht von vor 56 Minuten, um 09:20 UTC
Wind 12 kt aus Ost/Südost
Temperatur 4°C
Luftfeuchtigkeit 81%
Luftdruck 1028 hPa
Sichtweite 10 km oder mehr

METAR: ETHN 160920Z 11012KT 9999 04/01 Q1028 BLU+BLU+

Zeit: 11:16 (10:16 UTC)

Prognose

Neuester Wetterbericht von vor 2 Stunden und 16 Minuten, um 08:00 UTC
Gültige Prognose vom 16 um 09 UTC bis 16 um 18 UTC
Wind 10 kt aus Ost/Südost, Böen bis zu 20 kt
Sichtweite 10 km oder mehr
Leicht bewölkt in der Höhe von 1000 ft
Aufgelockert bewölkt in der Höhe von 30000 ft

TAF: ETHN 160800Z 1609/1618 11010G20KT 9999 NSW FEW010 SCT300

Wetterbeobachtungen und Prognosen von mehr als 4000 Flughäfen (METAR und TAF Bericht).

Die verfügbaren Stationen werden durch gelbe und rote Markierungen auf der Karte dargestellt.

Führen Sie die Maus auf sie, um den Namen der Station zu sehen.

Darauf klicken, um die Beobachtung von Wetterbeobachtungen und Prognosen zu sehen.

Um die Karte zu ändern : klicken Sie auf den grünen Tasten mit einem schwarzen Kreuz Zum Vergrößern, auf den grünen Button mit einem Gedankenstrich zu verkleinern, oder auf die grünen Pfeile für benachbarte Karten.


METAR-TAF: